Davison Army Air Field
KDAA : now visible

Airfield :











YOU CAN JOIN US ON...

 
LOGIN :

Register | Disclaimer

   EN    FR    IT 

 









Legend :    VFR   Marginal VFR   IFR   Intensive IFR   Very Intensive IFR
Visi :
Ceiling :
>= 8 km
>= 3000ft
5 to 8 km
1000 to 3000 ft
1500m to 5 km
500 to 1000 ft
800 to 1500m
200 to 500 ft
< 800m
< 200 ft
Symbols :   Thunderstorms  Fog  Heavy snow  Heavy precipitations  Wind > 20 kt






- Airport Elevation : 73 ft


KDAA - Davison Army Air Field

CURRENT METAR :
  • 120156Z AUTO 32012G19KT 10SM CLR 02/M09 A3052 RMK AO2 SLP339 T00241095 $

EXPIRED METARs :
  • 120056Z AUTO 00000KT 10SM CLR 00/M07 A3049 RMK AO2 SLP329 T10031071 $
  • 112356Z AUTO 00000KT 10SM CLR M01/M05 A3046 RMK AO2 SLP318 T10111053 10056 21011 52021 $

TAF TAF KDAA
Valid from the 12 at 02:00 until the 13 at 08:00 UTC


120200Z 1202/1308 32010G15KT 9999 SKC QNH3051INS
BECMG 1213/1214 03006KT 9999 FEW010 SCT210 QNH3054INS
BECMG 1304/1305 25006KT 9999 SCT010 BKN020 QNH3047INS TX04/1219Z TNM01/1212Z LAST NO AMDS AFT 1202 NEXT 1210



MET'MAP, your aeronautical weather chart ! - Copyright ORBIFLY December 2007 - Disclaimer

ORBIFLY MET'MAP TEAM :

Programming & Development : Alexandra Zaïnal
Concept & original design : Baudouin d'Aumeries
Assistance for programming : Marc-Olivier Méhu
Technical & hardware support : Manuel Goepfert

Contact : metmap@orbifly.com




SOURCES & CREDITS :

   NOAA       Earth
Advisory